sensor_id;sensor_type;location;lat;lon;timestamp;P1;durP1;ratioP1;P2;durP2;ratioP2
75362;SDS011;64122;51.988;5.892;2023-03-12T00:01:30;15.00;;;6.60;;
75362;SDS011;64122;51.988;5.892;2023-03-12T00:04:00;12.35;;;6.40;;
75362;SDS011;64122;51.988;5.892;2023-03-12T00:06:32;15.82;;;7.80;;
75362;SDS011;64122;51.988;5.892;2023-03-12T00:09:01;13.75;;;6.13;;
75362;SDS011;64122;51.988;5.892;2023-03-12T00:11:31;14.23;;;5.88;;
75362;SDS011;64122;51.988;5.892;2023-03-12T00:14:00;9.70;;;5.30;;
75362;SDS011;64122;51.988;5.892;2023-03-12T00:16:29;11.13;;;5.28;;
75362;SDS011;64122;51.988;5.892;2023-03-12T00:18:58;14.93;;;7.18;;
75362;SDS011;64122;51.988;5.892;2023-03-12T00:21:28;10.23;;;5.10;;
75362;SDS011;64122;51.988;5.892;2023-03-12T00:24:00;8.07;;;4.05;;
75362;SDS011;64122;51.988;5.892;2023-03-12T00:26:30;11.90;;;5.05;;
75362;SDS011;64122;51.988;5.892;2023-03-12T00:28:59;9.90;;;3.92;;
75362;SDS011;64122;51.988;5.892;2023-03-12T00:31:30;11.93;;;4.93;;
75362;SDS011;64122;51.988;5.892;2023-03-12T00:34:00;10.10;;;4.00;;
75362;SDS011;64122;51.988;5.892;2023-03-12T00:36:30;12.75;;;4.00;;
75362;SDS011;64122;51.988;5.892;2023-03-12T00:39:03;8.57;;;3.67;;
75362;SDS011;64122;51.988;5.892;2023-03-12T00:41:32;12.68;;;4.43;;
75362;SDS011;64122;51.988;5.892;2023-03-12T00:44:02;11.45;;;4.13;;
75362;SDS011;64122;51.988;5.892;2023-03-12T00:46:31;11.02;;;4.75;;
75362;SDS011;64122;51.988;5.892;2023-03-12T00:49:01;8.95;;;3.55;;
75362;SDS011;64122;51.988;5.892;2023-03-12T00:51:30;8.18;;;3.85;;
75362;SDS011;64122;51.988;5.892;2023-03-12T00:54:00;9.18;;;3.80;;
75362;SDS011;64122;51.988;5.892;2023-03-12T00:56:32;8.45;;;3.63;;
75362;SDS011;64122;51.988;5.892;2023-03-12T00:59:01;9.95;;;3.80;;
75362;SDS011;64122;51.988;5.892;2023-03-12T01:01:30;15.00;;;7.63;;
75362;SDS011;64122;51.988;5.892;2023-03-12T01:04:00;11.30;;;4.10;;
75362;SDS011;64122;51.988;5.892;2023-03-12T01:06:29;9.40;;;3.72;;
75362;SDS011;64122;51.988;5.892;2023-03-12T01:08:59;9.25;;;3.67;;
75362;SDS011;64122;51.988;5.892;2023-03-12T01:11:32;13.32;;;4.15;;
75362;SDS011;64122;51.988;5.892;2023-03-12T01:14:02;7.10;;;3.90;;
75362;SDS011;64122;51.988;5.892;2023-03-12T01:16:33;10.05;;;5.20;;
75362;SDS011;64122;51.988;5.892;2023-03-12T01:19:02;10.70;;;3.42;;
75362;SDS011;64122;51.988;5.892;2023-03-12T01:21:31;7.90;;;3.92;;
75362;SDS011;64122;51.988;5.892;2023-03-12T01:24:01;12.90;;;3.75;;
75362;SDS011;64122;51.988;5.892;2023-03-12T01:26:32;8.52;;;3.47;;
75362;SDS011;64122;51.988;5.892;2023-03-12T01:29:01;9.77;;;3.75;;
75362;SDS011;64122;51.988;5.892;2023-03-12T01:31:31;8.95;;;3.53;;
75362;SDS011;64122;51.988;5.892;2023-03-12T01:34:00;8.55;;;3.67;;
75362;SDS011;64122;51.988;5.892;2023-03-12T01:36:29;8.18;;;3.45;;
75362;SDS011;64122;51.988;5.892;2023-03-12T01:38:59;10.70;;;3.35;;
75362;SDS011;64122;51.988;5.892;2023-03-12T01:41:29;8.05;;;3.20;;
75362;SDS011;64122;51.988;5.892;2023-03-12T01:44:02;10.68;;;5.30;;
75362;SDS011;64122;51.988;5.892;2023-03-12T01:46:33;7.15;;;2.90;;
75362;SDS011;64122;51.988;5.892;2023-03-12T01:49:09;8.30;;;2.95;;
75362;SDS011;64122;51.988;5.892;2023-03-12T01:51:43;9.07;;;3.20;;
75362;SDS011;64122;51.988;5.892;2023-03-12T01:54:16;6.80;;;2.95;;
75362;SDS011;64122;51.988;5.892;2023-03-12T01:56:48;6.05;;;2.67;;
75362;SDS011;64122;51.988;5.892;2023-03-12T01:59:21;8.55;;;3.28;;
75362;SDS011;64122;51.988;5.892;2023-03-12T02:01:53;8.60;;;2.83;;
75362;SDS011;64122;51.988;5.892;2023-03-12T02:04:22;12.38;;;5.00;;
75362;SDS011;64122;51.988;5.892;2023-03-12T02:06:56;6.40;;;2.60;;
75362;SDS011;64122;51.988;5.892;2023-03-12T02:09:29;11.52;;;3.15;;
75362;SDS011;64122;51.988;5.892;2023-03-12T02:12:00;10.45;;;3.17;;
75362;SDS011;64122;51.988;5.892;2023-03-12T02:14:32;10.05;;;4.97;;
75362;SDS011;64122;51.988;5.892;2023-03-12T02:17:02;9.98;;;3.33;;
75362;SDS011;64122;51.988;5.892;2023-03-12T02:19:33;10.50;;;4.57;;
75362;SDS011;64122;51.988;5.892;2023-03-12T02:22:09;11.07;;;4.63;;
75362;SDS011;64122;51.988;5.892;2023-03-12T02:24:40;9.00;;;3.05;;
75362;SDS011;64122;51.988;5.892;2023-03-12T02:27:18;6.85;;;2.67;;
75362;SDS011;64122;51.988;5.892;2023-03-12T02:29:49;6.20;;;2.70;;
75362;SDS011;64122;51.988;5.892;2023-03-12T02:32:20;7.97;;;3.20;;
75362;SDS011;64122;51.988;5.892;2023-03-12T02:34:54;7.57;;;2.58;;
75362;SDS011;64122;51.988;5.892;2023-03-12T02:37:24;10.15;;;2.90;;
75362;SDS011;64122;51.988;5.892;2023-03-12T02:39:54;10.77;;;3.10;;
75362;SDS011;64122;51.988;5.892;2023-03-12T02:42:34;10.77;;;3.25;;
75362;SDS011;64122;51.988;5.892;2023-03-12T02:45:05;15.30;;;3.60;;
75362;SDS011;64122;51.988;5.892;2023-03-12T02:47:35;7.47;;;3.30;;
75362;SDS011;64122;51.988;5.892;2023-03-12T02:50:04;10.07;;;2.95;;
75362;SDS011;64122;51.988;5.892;2023-03-12T02:52:35;13.32;;;3.67;;
75362;SDS011;64122;51.988;5.892;2023-03-12T02:55:05;13.88;;;3.17;;
75362;SDS011;64122;51.988;5.892;2023-03-12T02:57:37;7.13;;;3.45;;
75362;SDS011;64122;51.988;5.892;2023-03-12T03:00:11;9.52;;;3.33;;
75362;SDS011;64122;51.988;5.892;2023-03-12T03:02:46;6.13;;;2.75;;
75362;SDS011;64122;51.988;5.892;2023-03-12T03:05:16;7.80;;;3.03;;
75362;SDS011;64122;51.988;5.892;2023-03-12T03:07:46;7.32;;;3.00;;
75362;SDS011;64122;51.988;5.892;2023-03-12T03:10:15;8.75;;;2.85;;
75362;SDS011;64122;51.988;5.892;2023-03-12T03:12:47;8.35;;;3.03;;
75362;SDS011;64122;51.988;5.892;2023-03-12T03:15:17;9.23;;;2.95;;
75362;SDS011;64122;51.988;5.892;2023-03-12T03:17:46;7.00;;;2.30;;
75362;SDS011;64122;51.988;5.892;2023-03-12T03:20:16;6.32;;;2.80;;
75362;SDS011;64122;51.988;5.892;2023-03-12T03:22:46;7.90;;;2.60;;
75362;SDS011;64122;51.988;5.892;2023-03-12T03:25:15;11.27;;;2.70;;
75362;SDS011;64122;51.988;5.892;2023-03-12T03:27:49;6.03;;;2.05;;
75362;SDS011;64122;51.988;5.892;2023-03-12T03:30:18;9.77;;;2.28;;
75362;SDS011;64122;51.988;5.892;2023-03-12T03:32:50;12.25;;;2.50;;
75362;SDS011;64122;51.988;5.892;2023-03-12T03:35:19;7.80;;;2.00;;
75362;SDS011;64122;51.988;5.892;2023-03-12T03:37:49;10.90;;;3.22;;
75362;SDS011;64122;51.988;5.892;2023-03-12T03:40:18;7.00;;;2.35;;
75362;SDS011;64122;51.988;5.892;2023-03-12T03:42:50;7.00;;;2.28;;
75362;SDS011;64122;51.988;5.892;2023-03-12T03:45:20;7.70;;;2.28;;
75362;SDS011;64122;51.988;5.892;2023-03-12T03:47:49;12.20;;;3.88;;
75362;SDS011;64122;51.988;5.892;2023-03-12T03:50:19;9.43;;;2.13;;
75362;SDS011;64122;51.988;5.892;2023-03-12T03:52:49;10.68;;;2.40;;
75362;SDS011;64122;51.988;5.892;2023-03-12T03:55:18;10.02;;;3.92;;
75362;SDS011;64122;51.988;5.892;2023-03-12T03:57:47;7.10;;;2.13;;
75362;SDS011;64122;51.988;5.892;2023-03-12T04:00:19;7.80;;;2.20;;
75362;SDS011;64122;51.988;5.892;2023-03-12T04:02:51;7.32;;;2.70;;
75362;SDS011;64122;51.988;5.892;2023-03-12T04:05:20;6.20;;;2.25;;
75362;SDS011;64122;51.988;5.892;2023-03-12T04:07:50;6.07;;;2.30;;
75362;SDS011;64122;51.988;5.892;2023-03-12T04:10:23;7.97;;;2.25;;
75362;SDS011;64122;51.988;5.892;2023-03-12T04:12:52;11.50;;;2.45;;
75362;SDS011;64122;51.988;5.892;2023-03-12T04:15:25;9.00;;;2.80;;
75362;SDS011;64122;51.988;5.892;2023-03-12T04:17:54;6.32;;;2.45;;
75362;SDS011;64122;51.988;5.892;2023-03-12T04:20:24;9.70;;;2.65;;
75362;SDS011;64122;51.988;5.892;2023-03-12T04:22:54;5.65;;;2.03;;
75362;SDS011;64122;51.988;5.892;2023-03-12T04:25:23;5.63;;;2.40;;
75362;SDS011;64122;51.988;5.892;2023-03-12T04:27:52;6.85;;;2.50;;
75362;SDS011;64122;51.988;5.892;2023-03-12T04:30:22;9.43;;;2.55;;
75362;SDS011;64122;51.988;5.892;2023-03-12T04:32:54;9.68;;;3.47;;
75362;SDS011;64122;51.988;5.892;2023-03-12T04:35:23;8.43;;;2.55;;
75362;SDS011;64122;51.988;5.892;2023-03-12T04:37:53;6.15;;;2.53;;
75362;SDS011;64122;51.988;5.892;2023-03-12T04:40:23;5.95;;;2.30;;
75362;SDS011;64122;51.988;5.892;2023-03-12T04:42:52;10.73;;;3.58;;
75362;SDS011;64122;51.988;5.892;2023-03-12T04:45:21;9.55;;;2.15;;
75362;SDS011;64122;51.988;5.892;2023-03-12T04:47:54;6.25;;;2.10;;
75362;SDS011;64122;51.988;5.892;2023-03-12T04:50:23;7.10;;;2.53;;
75362;SDS011;64122;51.988;5.892;2023-03-12T04:52:53;10.70;;;3.00;;
75362;SDS011;64122;51.988;5.892;2023-03-12T04:55:22;6.72;;;2.35;;
75362;SDS011;64122;51.988;5.892;2023-03-12T04:57:51;11.23;;;2.65;;
75362;SDS011;64122;51.988;5.892;2023-03-12T05:00:25;7.03;;;2.60;;
75362;SDS011;64122;51.988;5.892;2023-03-12T05:02:55;8.45;;;2.65;;
75362;SDS011;64122;51.988;5.892;2023-03-12T05:05:24;7.38;;;1.95;;
75362;SDS011;64122;51.988;5.892;2023-03-12T05:07:53;7.50;;;2.80;;
75362;SDS011;64122;51.988;5.892;2023-03-12T05:10:22;8.02;;;2.65;;
75362;SDS011;64122;51.988;5.892;2023-03-12T05:12:52;7.18;;;2.60;;
75362;SDS011;64122;51.988;5.892;2023-03-12T05:15:21;5.97;;;2.05;;
75362;SDS011;64122;51.988;5.892;2023-03-12T05:17:53;11.88;;;2.75;;
75362;SDS011;64122;51.988;5.892;2023-03-12T05:20:22;8.63;;;2.88;;
75362;SDS011;64122;51.988;5.892;2023-03-12T05:22:52;10.07;;;2.50;;
75362;SDS011;64122;51.988;5.892;2023-03-12T05:25:21;9.35;;;2.88;;
75362;SDS011;64122;51.988;5.892;2023-03-12T05:27:50;9.52;;;2.75;;
75362;SDS011;64122;51.988;5.892;2023-03-12T05:30:20;7.30;;;2.85;;
75362;SDS011;64122;51.988;5.892;2023-03-12T05:32:53;8.27;;;2.47;;
75362;SDS011;64122;51.988;5.892;2023-03-12T05:35:22;8.98;;;2.50;;
75362;SDS011;64122;51.988;5.892;2023-03-12T05:37:52;6.63;;;2.95;;
75362;SDS011;64122;51.988;5.892;2023-03-12T05:40:21;7.75;;;2.40;;
75362;SDS011;64122;51.988;5.892;2023-03-12T05:42:50;11.45;;;2.90;;
75362;SDS011;64122;51.988;5.892;2023-03-12T05:45:23;6.95;;;2.88;;
75362;SDS011;64122;51.988;5.892;2023-03-12T05:47:57;7.93;;;3.00;;
75362;SDS011;64122;51.988;5.892;2023-03-12T05:52:57;7.65;;;2.50;;
75362;SDS011;64122;51.988;5.892;2023-03-12T05:55:26;6.57;;;2.88;;
75362;SDS011;64122;51.988;5.892;2023-03-12T05:57:56;12.70;;;2.80;;
75362;SDS011;64122;51.988;5.892;2023-03-12T06:00:26;7.25;;;2.05;;
75362;SDS011;64122;51.988;5.892;2023-03-12T06:02:59;9.15;;;2.63;;
75362;SDS011;64122;51.988;5.892;2023-03-12T06:05:29;9.13;;;2.85;;
75362;SDS011;64122;51.988;5.892;2023-03-12T06:07:58;5.45;;;2.25;;
75362;SDS011;64122;51.988;5.892;2023-03-12T06:10:28;7.53;;;2.70;;
75362;SDS011;64122;51.988;5.892;2023-03-12T06:12:58;9.93;;;2.33;;
75362;SDS011;64122;51.988;5.892;2023-03-12T06:15:27;5.97;;;2.80;;
75362;SDS011;64122;51.988;5.892;2023-03-12T06:17:59;8.27;;;2.63;;
75362;SDS011;64122;51.988;5.892;2023-03-12T06:20:28;6.90;;;2.22;;
75362;SDS011;64122;51.988;5.892;2023-03-12T06:22:58;8.18;;;2.50;;
75362;SDS011;64122;51.988;5.892;2023-03-12T06:25:27;9.68;;;3.03;;
75362;SDS011;64122;51.988;5.892;2023-03-12T06:27:56;7.35;;;3.05;;
75362;SDS011;64122;51.988;5.892;2023-03-12T06:30:26;12.75;;;3.20;;
75362;SDS011;64122;51.988;5.892;2023-03-12T06:32:55;8.68;;;3.40;;
75362;SDS011;64122;51.988;5.892;2023-03-12T06:35:27;13.40;;;3.97;;
75362;SDS011;64122;51.988;5.892;2023-03-12T06:37:56;9.57;;;4.20;;
75362;SDS011;64122;51.988;5.892;2023-03-12T06:40:25;8.02;;;3.47;;
75362;SDS011;64122;51.988;5.892;2023-03-12T06:42:54;8.45;;;2.92;;
75362;SDS011;64122;51.988;5.892;2023-03-12T06:45:23;7.00;;;3.20;;
75362;SDS011;64122;51.988;5.892;2023-03-12T06:47:53;5.90;;;2.42;;
75362;SDS011;64122;51.988;5.892;2023-03-12T06:50:22;10.20;;;3.20;;
75362;SDS011;64122;51.988;5.892;2023-03-12T06:52:54;9.32;;;3.00;;
75362;SDS011;64122;51.988;5.892;2023-03-12T06:55:23;6.68;;;2.83;;
75362;SDS011;64122;51.988;5.892;2023-03-12T06:57:52;7.38;;;2.63;;
75362;SDS011;64122;51.988;5.892;2023-03-12T07:00:21;11.82;;;3.30;;
75362;SDS011;64122;51.988;5.892;2023-03-12T07:02:51;11.05;;;2.60;;
75362;SDS011;64122;51.988;5.892;2023-03-12T07:05:20;8.23;;;3.10;;
75362;SDS011;64122;51.988;5.892;2023-03-12T07:07:49;11.00;;;3.17;;
75362;SDS011;64122;51.988;5.892;2023-03-12T07:10:21;8.25;;;2.85;;
75362;SDS011;64122;51.988;5.892;2023-03-12T07:12:52;10.27;;;2.95;;
75362;SDS011;64122;51.988;5.892;2023-03-12T07:15:22;10.70;;;2.80;;
75362;SDS011;64122;51.988;5.892;2023-03-12T07:17:51;10.38;;;3.05;;
75362;SDS011;64122;51.988;5.892;2023-03-12T07:20:21;9.32;;;2.88;;
75362;SDS011;64122;51.988;5.892;2023-03-12T07:22:50;7.07;;;2.92;;
75362;SDS011;64122;51.988;5.892;2023-03-12T07:25:22;8.60;;;2.60;;
75362;SDS011;64122;51.988;5.892;2023-03-12T07:27:51;7.80;;;2.95;;
75362;SDS011;64122;51.988;5.892;2023-03-12T07:30:21;10.65;;;3.20;;
75362;SDS011;64122;51.988;5.892;2023-03-12T07:32:50;7.97;;;2.75;;
75362;SDS011;64122;51.988;5.892;2023-03-12T07:35:19;9.65;;;2.80;;
75362;SDS011;64122;51.988;5.892;2023-03-12T07:37:49;7.45;;;2.97;;
75362;SDS011;64122;51.988;5.892;2023-03-12T07:40:18;12.27;;;2.70;;
75362;SDS011;64122;51.988;5.892;2023-03-12T07:42:51;7.10;;;2.92;;
75362;SDS011;64122;51.988;5.892;2023-03-12T07:45:21;9.20;;;3.25;;
75362;SDS011;64122;51.988;5.892;2023-03-12T07:47:51;8.48;;;3.30;;
75362;SDS011;64122;51.988;5.892;2023-03-12T07:50:20;7.68;;;3.28;;
75362;SDS011;64122;51.988;5.892;2023-03-12T07:52:52;6.75;;;2.97;;
75362;SDS011;64122;51.988;5.892;2023-03-12T07:55:21;8.80;;;3.00;;
75362;SDS011;64122;51.988;5.892;2023-03-12T07:57:53;8.73;;;3.75;;
75362;SDS011;64122;51.988;5.892;2023-03-12T08:00:24;9.23;;;3.28;;
75362;SDS011;64122;51.988;5.892;2023-03-12T08:02:54;11.70;;;3.58;;
75362;SDS011;64122;51.988;5.892;2023-03-12T08:05:23;7.80;;;2.85;;
75362;SDS011;64122;51.988;5.892;2023-03-12T08:07:52;10.00;;;3.72;;
75362;SDS011;64122;51.988;5.892;2023-03-12T08:10:21;8.52;;;3.10;;
75362;SDS011;64122;51.988;5.892;2023-03-12T08:12:54;8.23;;;3.42;;
75362;SDS011;64122;51.988;5.892;2023-03-12T08:15:23;7.15;;;2.92;;
75362;SDS011;64122;51.988;5.892;2023-03-12T08:17:52;10.95;;;3.83;;
75362;SDS011;64122;51.988;5.892;2023-03-12T08:20:22;18.40;;;3.70;;
75362;SDS011;64122;51.988;5.892;2023-03-12T08:22:51;9.88;;;3.47;;
75362;SDS011;64122;51.988;5.892;2023-03-12T08:25:20;8.32;;;3.47;;
75362;SDS011;64122;51.988;5.892;2023-03-12T08:27:49;7.97;;;4.13;;
75362;SDS011;64122;51.988;5.892;2023-03-12T08:30:21;10.18;;;3.60;;
75362;SDS011;64122;51.988;5.892;2023-03-12T08:32:50;11.68;;;4.45;;
75362;SDS011;64122;51.988;5.892;2023-03-12T08:35:20;8.32;;;3.47;;
75362;SDS011;64122;51.988;5.892;2023-03-12T08:37:49;7.93;;;3.53;;
75362;SDS011;64122;51.988;5.892;2023-03-12T08:40:18;7.50;;;3.38;;
75362;SDS011;64122;51.988;5.892;2023-03-12T08:42:47;6.97;;;3.63;;
75362;SDS011;64122;51.988;5.892;2023-03-12T08:45:17;11.52;;;3.72;;
75362;SDS011;64122;51.988;5.892;2023-03-12T08:47:49;11.63;;;3.92;;
75362;SDS011;64122;51.988;5.892;2023-03-12T08:50:18;7.45;;;3.50;;
75362;SDS011;64122;51.988;5.892;2023-03-12T08:52:50;8.95;;;4.15;;
75362;SDS011;64122;51.988;5.892;2023-03-12T08:55:19;10.90;;;4.43;;
75362;SDS011;64122;51.988;5.892;2023-03-12T08:57:48;10.55;;;4.30;;
75362;SDS011;64122;51.988;5.892;2023-03-12T09:00:17;9.82;;;4.70;;
75362;SDS011;64122;51.988;5.892;2023-03-12T09:02:50;9.23;;;3.58;;
75362;SDS011;64122;51.988;5.892;2023-03-12T09:05:22;11.38;;;4.15;;
75362;SDS011;64122;51.988;5.892;2023-03-12T09:07:54;10.63;;;3.88;;
75362;SDS011;64122;51.988;5.892;2023-03-12T09:10:24;8.93;;;3.42;;
75362;SDS011;64122;51.988;5.892;2023-03-12T09:12:54;6.70;;;3.67;;
75362;SDS011;64122;51.988;5.892;2023-03-12T09:15:23;8.65;;;4.20;;
75362;SDS011;64122;51.988;5.892;2023-03-12T09:17:55;8.55;;;4.43;;
75362;SDS011;64122;51.988;5.892;2023-03-12T09:20:24;9.70;;;3.47;;
75362;SDS011;64122;51.988;5.892;2023-03-12T09:22:53;11.65;;;4.35;;
75362;SDS011;64122;51.988;5.892;2023-03-12T09:25:22;8.95;;;3.83;;
75362;SDS011;64122;51.988;5.892;2023-03-12T09:27:52;8.88;;;4.30;;
75362;SDS011;64122;51.988;5.892;2023-03-12T09:30:21;8.13;;;4.22;;
75362;SDS011;64122;51.988;5.892;2023-03-12T09:32:57;9.52;;;4.65;;
75362;SDS011;64122;51.988;5.892;2023-03-12T09:35:26;8.20;;;4.68;;
75362;SDS011;64122;51.988;5.892;2023-03-12T09:37:56;9.57;;;4.15;;
75362;SDS011;64122;51.988;5.892;2023-03-12T09:40:26;11.55;;;4.75;;
75362;SDS011;64122;51.988;5.892;2023-03-12T09:42:59;8.60;;;4.68;;
75362;SDS011;64122;51.988;5.892;2023-03-12T09:45:34;9.80;;;4.93;;
75362;SDS011;64122;51.988;5.892;2023-03-12T09:48:11;10.30;;;4.70;;
75362;SDS011;64122;51.988;5.892;2023-03-12T09:50:43;9.55;;;4.43;;
75362;SDS011;64122;51.988;5.892;2023-03-12T09:53:17;11.70;;;5.03;;
75362;SDS011;64122;51.988;5.892;2023-03-12T09:55:52;10.10;;;4.85;;
75362;SDS011;64122;51.988;5.892;2023-03-12T09:58:24;10.77;;;5.35;;
75362;SDS011;64122;51.988;5.892;2023-03-12T10:00:58;11.63;;;5.57;;
75362;SDS011;64122;51.988;5.892;2023-03-12T10:03:36;10.20;;;5.63;;
75362;SDS011;64122;51.988;5.892;2023-03-12T10:06:20;10.73;;;5.72;;
75362;SDS011;64122;51.988;5.892;2023-03-12T10:08:55;39.80;;;21.33;;
75362;SDS011;64122;51.988;5.892;2023-03-12T10:11:36;14.55;;;8.48;;
75362;SDS011;64122;51.988;5.892;2023-03-12T10:14:27;13.00;;;5.88;;
75362;SDS011;64122;51.988;5.892;2023-03-12T10:17:10;18.15;;;9.35;;
75362;SDS011;64122;51.988;5.892;2023-03-12T10:19:58;15.35;;;7.90;;
75362;SDS011;64122;51.988;5.892;2023-03-12T10:22:49;19.23;;;9.40;;
75362;SDS011;64122;51.988;5.892;2023-03-12T10:25:27;13.35;;;7.43;;
75362;SDS011;64122;51.988;5.892;2023-03-12T10:28:06;14.57;;;6.53;;
75362;SDS011;64122;51.988;5.892;2023-03-12T10:30:44;16.40;;;8.95;;
75362;SDS011;64122;51.988;5.892;2023-03-12T10:33:18;12.48;;;7.35;;
75362;SDS011;64122;51.988;5.892;2023-03-12T10:35:51;16.38;;;7.78;;
75362;SDS011;64122;51.988;5.892;2023-03-12T10:38:21;18.80;;;11.23;;
75362;SDS011;64122;51.988;5.892;2023-03-12T10:40:55;23.23;;;10.18;;
75362;SDS011;64122;51.988;5.892;2023-03-12T10:43:24;18.80;;;8.32;;
75362;SDS011;64122;51.988;5.892;2023-03-12T10:45:56;19.98;;;8.90;;
75362;SDS011;64122;51.988;5.892;2023-03-12T10:48:32;21.50;;;11.50;;
75362;SDS011;64122;51.988;5.892;2023-03-12T10:51:04;19.20;;;9.35;;
75362;SDS011;64122;51.988;5.892;2023-03-12T10:53:36;18.58;;;8.38;;
75362;SDS011;64122;51.988;5.892;2023-03-12T10:56:10;20.15;;;10.23;;
75362;SDS011;64122;51.988;5.892;2023-03-12T10:58:41;16.95;;;9.27;;
75362;SDS011;64122;51.988;5.892;2023-03-12T11:01:15;19.20;;;9.50;;
75362;SDS011;64122;51.988;5.892;2023-03-12T11:03:48;19.90;;;9.90;;
75362;SDS011;64122;51.988;5.892;2023-03-12T11:06:24;42.83;;;21.38;;
75362;SDS011;64122;51.988;5.892;2023-03-12T11:09:02;23.42;;;10.18;;
75362;SDS011;64122;51.988;5.892;2023-03-12T11:11:34;21.88;;;10.27;;
75362;SDS011;64122;51.988;5.892;2023-03-12T11:14:05;48.20;;;25.85;;
75362;SDS011;64122;51.988;5.892;2023-03-12T11:16:37;17.65;;;9.85;;
75362;SDS011;64122;51.988;5.892;2023-03-12T11:19:09;18.77;;;9.45;;
75362;SDS011;64122;51.988;5.892;2023-03-12T11:21:53;26.90;;;14.70;;
75362;SDS011;64122;51.988;5.892;2023-03-12T11:24:24;24.02;;;10.88;;
75362;SDS011;64122;51.988;5.892;2023-03-12T11:26:55;19.80;;;10.65;;
75362;SDS011;64122;51.988;5.892;2023-03-12T11:29:31;22.38;;;10.98;;
75362;SDS011;64122;51.988;5.892;2023-03-12T11:32:05;38.65;;;22.08;;
75362;SDS011;64122;51.988;5.892;2023-03-12T11:34:42;20.35;;;11.10;;
75362;SDS011;64122;51.988;5.892;2023-03-12T11:37:18;18.98;;;9.98;;
75362;SDS011;64122;51.988;5.892;2023-03-12T11:40:04;25.27;;;11.57;;
75362;SDS011;64122;51.988;5.892;2023-03-12T11:42:50;23.85;;;9.73;;
75362;SDS011;64122;51.988;5.892;2023-03-12T11:45:28;21.77;;;8.95;;
75362;SDS011;64122;51.988;5.892;2023-03-12T11:48:09;24.40;;;9.10;;
75362;SDS011;64122;51.988;5.892;2023-03-12T11:50:50;22.00;;;8.63;;
75362;SDS011;64122;51.988;5.892;2023-03-12T11:56:27;33.92;;;13.05;;
75362;SDS011;64122;51.988;5.892;2023-03-12T11:59:04;26.73;;;9.43;;
75362;SDS011;64122;51.988;5.892;2023-03-12T12:01:45;18.45;;;7.00;;
75362;SDS011;64122;51.988;5.892;2023-03-12T12:07:28;22.45;;;6.93;;
75362;SDS011;64122;51.988;5.892;2023-03-12T12:10:16;18.80;;;6.10;;
75362;SDS011;64122;51.988;5.892;2023-03-12T12:12:53;25.98;;;6.80;;
75362;SDS011;64122;51.988;5.892;2023-03-12T12:15:31;24.98;;;6.95;;
75362;SDS011;64122;51.988;5.892;2023-03-12T12:18:12;19.63;;;5.63;;
75362;SDS011;64122;51.988;5.892;2023-03-12T12:21:01;14.23;;;4.50;;
75362;SDS011;64122;51.988;5.892;2023-03-12T12:23:41;20.80;;;5.90;;
75362;SDS011;64122;51.988;5.892;2023-03-12T12:26:20;23.65;;;5.68;;
75362;SDS011;64122;51.988;5.892;2023-03-12T12:29:08;21.20;;;5.95;;
75362;SDS011;64122;51.988;5.892;2023-03-12T12:31:49;13.95;;;4.35;;
75362;SDS011;64122;51.988;5.892;2023-03-12T12:34:40;21.60;;;5.38;;
75362;SDS011;64122;51.988;5.892;2023-03-12T12:40:20;28.25;;;6.55;;
75362;SDS011;64122;51.988;5.892;2023-03-12T12:43:01;29.30;;;9.50;;
75362;SDS011;64122;51.988;5.892;2023-03-12T12:45:39;29.20;;;9.18;;
75362;SDS011;64122;51.988;5.892;2023-03-12T12:48:11;27.88;;;5.65;;
75362;SDS011;64122;51.988;5.892;2023-03-12T12:50:44;33.20;;;10.60;;
75362;SDS011;64122;51.988;5.892;2023-03-12T12:53:19;26.30;;;6.43;;
75362;SDS011;64122;51.988;5.892;2023-03-12T12:55:55;34.33;;;11.23;;
75362;SDS011;64122;51.988;5.892;2023-03-12T12:58:40;54.15;;;20.90;;
75362;SDS011;64122;51.988;5.892;2023-03-12T13:01:24;36.97;;;13.65;;
75362;SDS011;64122;51.988;5.892;2023-03-12T13:03:55;26.08;;;7.18;;
75362;SDS011;64122;51.988;5.892;2023-03-12T13:06:27;26.10;;;8.18;;
75362;SDS011;64122;51.988;5.892;2023-03-12T13:08:58;28.70;;;6.10;;
75362;SDS011;64122;51.988;5.892;2023-03-12T13:11:29;25.58;;;9.40;;
75362;SDS011;64122;51.988;5.892;2023-03-12T13:14:17;26.88;;;6.10;;
75362;SDS011;64122;51.988;5.892;2023-03-12T13:16:48;29.13;;;6.47;;
75362;SDS011;64122;51.988;5.892;2023-03-12T13:19:37;31.30;;;6.90;;
75362;SDS011;64122;51.988;5.892;2023-03-12T13:22:11;21.52;;;5.50;;
75362;SDS011;64122;51.988;5.892;2023-03-12T13:24:49;26.23;;;5.53;;
75362;SDS011;64122;51.988;5.892;2023-03-12T13:27:28;26.13;;;4.85;;
75362;SDS011;64122;51.988;5.892;2023-03-12T13:30:01;29.33;;;5.40;;
75362;SDS011;64122;51.988;5.892;2023-03-12T13:33:10;22.02;;;4.30;;
75362;SDS011;64122;51.988;5.892;2023-03-12T13:35:40;26.73;;;4.25;;
75362;SDS011;64122;51.988;5.892;2023-03-12T13:38:10;26.05;;;4.93;;
75362;SDS011;64122;51.988;5.892;2023-03-12T13:43:31;23.08;;;5.03;;
75362;SDS011;64122;51.988;5.892;2023-03-12T13:46:35;27.50;;;5.05;;
75362;SDS011;64122;51.988;5.892;2023-03-12T13:49:13;34.10;;;5.32;;
75362;SDS011;64122;51.988;5.892;2023-03-12T13:51:51;37.75;;;8.77;;
75362;SDS011;64122;51.988;5.892;2023-03-12T13:54:28;26.45;;;5.32;;
75362;SDS011;64122;51.988;5.892;2023-03-12T13:57:01;42.13;;;13.75;;
75362;SDS011;64122;51.988;5.892;2023-03-12T13:59:33;23.60;;;5.22;;
75362;SDS011;64122;51.988;5.892;2023-03-12T14:02:11;23.50;;;4.63;;
75362;SDS011;64122;51.988;5.892;2023-03-12T14:04:48;32.63;;;4.68;;
75362;SDS011;64122;51.988;5.892;2023-03-12T14:10:18;22.95;;;5.07;;
75362;SDS011;64122;51.988;5.892;2023-03-12T14:12:59;32.50;;;5.80;;
75362;SDS011;64122;51.988;5.892;2023-03-12T14:15:39;24.58;;;5.32;;
75362;SDS011;64122;51.988;5.892;2023-03-12T14:18:17;28.77;;;6.78;;
75362;SDS011;64122;51.988;5.892;2023-03-12T14:20:51;19.90;;;4.10;;
75362;SDS011;64122;51.988;5.892;2023-03-12T14:23:23;28.98;;;4.40;;
75362;SDS011;64122;51.988;5.892;2023-03-12T14:28:27;25.70;;;4.20;;
75362;SDS011;64122;51.988;5.892;2023-03-12T14:30:58;19.33;;;4.40;;
75362;SDS011;64122;51.988;5.892;2023-03-12T14:33:33;24.10;;;4.38;;
75362;SDS011;64122;51.988;5.892;2023-03-12T14:36:11;20.42;;;4.13;;
75362;SDS011;64122;51.988;5.892;2023-03-12T14:38:44;20.13;;;5.10;;
75362;SDS011;64122;51.988;5.892;2023-03-12T14:41:15;17.55;;;3.20;;
75362;SDS011;64122;51.988;5.892;2023-03-12T14:43:50;19.08;;;3.95;;
75362;SDS011;64122;51.988;5.892;2023-03-12T14:46:21;22.90;;;3.97;;
75362;SDS011;64122;51.988;5.892;2023-03-12T14:48:54;20.90;;;3.65;;
75362;SDS011;64122;51.988;5.892;2023-03-12T14:51:24;23.63;;;3.78;;
75362;SDS011;64122;51.988;5.892;2023-03-12T14:53:54;19.77;;;4.03;;
75362;SDS011;64122;51.988;5.892;2023-03-12T14:56:30;16.33;;;3.60;;
75362;SDS011;64122;51.988;5.892;2023-03-12T14:59:03;24.40;;;3.38;;
75362;SDS011;64122;51.988;5.892;2023-03-12T15:01:54;18.90;;;3.13;;
75362;SDS011;64122;51.988;5.892;2023-03-12T15:04:29;22.80;;;4.90;;
75362;SDS011;64122;51.988;5.892;2023-03-12T15:07:02;21.05;;;3.50;;
75362;SDS011;64122;51.988;5.892;2023-03-12T15:09:33;23.75;;;3.80;;
75362;SDS011;64122;51.988;5.892;2023-03-12T15:12:04;26.38;;;7.53;;
75362;SDS011;64122;51.988;5.892;2023-03-12T15:14:37;18.00;;;4.07;;
75362;SDS011;64122;51.988;5.892;2023-03-12T15:19:44;23.80;;;3.88;;
75362;SDS011;64122;51.988;5.892;2023-03-12T15:22:16;19.95;;;3.40;;
75362;SDS011;64122;51.988;5.892;2023-03-12T15:24:48;20.02;;;3.92;;
75362;SDS011;64122;51.988;5.892;2023-03-12T15:27:18;32.20;;;8.95;;
75362;SDS011;64122;51.988;5.892;2023-03-12T15:29:49;20.92;;;3.28;;
75362;SDS011;64122;51.988;5.892;2023-03-12T15:32:19;23.85;;;4.88;;
75362;SDS011;64122;51.988;5.892;2023-03-12T15:34:53;24.98;;;3.70;;